createdAt,value
2023-01-23T00:01:46.728Z,3.70
2023-01-23T00:04:15.690Z,3.70
2023-01-23T00:06:44.377Z,3.60
2023-01-23T00:09:12.315Z,3.70
2023-01-23T00:11:41.742Z,3.70
2023-01-23T00:14:12.306Z,3.70
2023-01-23T00:16:40.271Z,3.70
2023-01-23T00:19:18.550Z,3.70
2023-01-23T00:21:46.505Z,3.70
2023-01-23T00:24:16.414Z,3.70
2023-01-23T00:26:45.871Z,3.70
2023-01-23T00:29:15.519Z,3.70
2023-01-23T00:31:43.567Z,3.70
2023-01-23T00:34:14.050Z,3.70
2023-01-23T00:36:43.657Z,3.70
2023-01-23T00:39:16.594Z,3.70
2023-01-23T00:41:49.502Z,3.70
2023-01-23T00:44:19.174Z,3.70
2023-01-23T00:46:47.732Z,3.70
2023-01-23T00:49:17.858Z,3.70
2023-01-23T00:51:48.439Z,3.70
2023-01-23T00:54:16.524Z,3.60
2023-01-23T00:56:51.979Z,3.60
2023-01-23T00:59:21.306Z,3.60
2023-01-23T01:01:51.293Z,3.60
2023-01-23T01:04:19.465Z,3.60
2023-01-23T01:06:56.229Z,3.50
2023-01-23T01:09:24.844Z,3.50
2023-01-23T01:11:52.918Z,3.60
2023-01-23T01:14:22.335Z,3.60
2023-01-23T01:16:54.176Z,3.60
2023-01-23T01:19:22.131Z,3.60
2023-01-23T01:21:50.089Z,3.60
2023-01-23T01:24:19.423Z,3.60
2023-01-23T01:26:47.480Z,3.60
2023-01-23T01:29:16.280Z,3.60
2023-01-23T01:31:46.130Z,3.60
2023-01-23T01:34:14.146Z,3.60
2023-01-23T01:36:45.700Z,3.60
2023-01-23T01:39:13.692Z,3.60
2023-01-23T01:41:43.841Z,3.60
2023-01-23T01:44:17.051Z,3.60
2023-01-23T01:46:49.284Z,3.60
2023-01-23T01:49:22.320Z,3.50
2023-01-23T01:51:55.762Z,3.50
2023-01-23T01:54:29.744Z,3.50
2023-01-23T01:57:02.199Z,3.50
2023-01-23T01:59:36.967Z,3.50
2023-01-23T02:02:12.220Z,3.50
2023-01-23T02:04:53.663Z,3.40
2023-01-23T02:07:28.739Z,3.40
2023-01-23T02:09:59.725Z,3.40
2023-01-23T02:12:28.160Z,3.30
2023-01-23T02:14:58.652Z,3.30
2023-01-23T02:17:28.211Z,3.30
2023-01-23T02:20:04.380Z,3.30
2023-01-23T02:22:46.411Z,3.30
2023-01-23T02:25:24.371Z,3.30
2023-01-23T02:27:54.604Z,3.30
2023-01-23T02:30:23.068Z,3.30
2023-01-23T02:32:51.289Z,3.20
2023-01-23T02:35:28.445Z,3.20
2023-01-23T02:37:59.646Z,3.20
2023-01-23T02:40:32.838Z,3.20
2023-01-23T02:43:02.548Z,3.10
2023-01-23T02:45:34.316Z,3.20
2023-01-23T02:48:03.055Z,3.20
2023-01-23T02:50:31.038Z,3.20
2023-01-23T02:52:59.345Z,3.20
2023-01-23T02:55:29.675Z,3.20
2023-01-23T02:58:19.948Z,3.30
2023-01-23T03:00:48.399Z,3.30
2023-01-23T03:03:18.011Z,3.30
2023-01-23T03:05:49.070Z,3.30
2023-01-23T03:08:17.104Z,3.30
2023-01-23T03:10:45.070Z,3.30
2023-01-23T03:13:13.907Z,3.30
2023-01-23T03:15:45.980Z,3.20
2023-01-23T03:18:15.741Z,3.20
2023-01-23T03:20:47.390Z,3.20
2023-01-23T03:23:16.741Z,3.20
2023-01-23T03:25:48.861Z,3.20
2023-01-23T03:28:30.974Z,3.20
2023-01-23T03:30:58.977Z,3.20
2023-01-23T03:33:33.124Z,3.20
2023-01-23T03:36:01.300Z,3.20
2023-01-23T03:38:30.425Z,3.10
2023-01-23T03:41:15.865Z,3.10
2023-01-23T03:43:43.801Z,3.10
2023-01-23T03:46:17.227Z,3.10
2023-01-23T03:48:46.628Z,3.10
2023-01-23T03:51:18.896Z,3.10
2023-01-23T03:53:46.965Z,3.10
2023-01-23T03:56:21.988Z,3.10
2023-01-23T03:58:50.073Z,3.10
2023-01-23T04:01:23.441Z,3.10
2023-01-23T04:03:53.181Z,3.20
2023-01-23T04:06:22.678Z,3.10
2023-01-23T04:08:50.627Z,3.10
2023-01-23T04:11:19.833Z,3.10
2023-01-23T04:13:47.983Z,3.10
2023-01-23T04:16:16.016Z,3.10
2023-01-23T04:18:54.606Z,3.10
2023-01-23T04:21:24.127Z,3.10
2023-01-23T04:23:52.273Z,3.10
2023-01-23T04:26:20.212Z,3.10
2023-01-23T04:28:48.196Z,3.10
2023-01-23T04:31:18.635Z,3.10
2023-01-23T04:33:46.902Z,3.10
2023-01-23T04:36:15.096Z,3.10
2023-01-23T04:38:44.488Z,3.10
2023-01-23T04:41:18.638Z,3.10
2023-01-23T04:43:46.895Z,3.10
2023-01-23T04:46:25.358Z,3.10
2023-01-23T04:48:53.430Z,3.20
2023-01-23T04:51:24.048Z,3.20
2023-01-23T04:53:53.473Z,3.20
2023-01-23T04:56:24.566Z,3.20
2023-01-23T04:58:53.793Z,3.20
2023-01-23T05:01:26.011Z,3.20
2023-01-23T05:03:54.790Z,3.20
2023-01-23T05:06:22.769Z,3.20
2023-01-23T05:08:59.981Z,3.30
2023-01-23T05:11:31.963Z,3.30
2023-01-23T05:14:00.334Z,3.30
2023-01-23T05:16:28.272Z,3.30
2023-01-23T05:18:56.236Z,3.20
2023-01-23T05:21:24.306Z,3.10
2023-01-23T05:23:58.117Z,3.10
2023-01-23T05:26:27.648Z,3.20
2023-01-23T05:29:00.514Z,3.20
2023-01-23T05:31:28.665Z,3.20
2023-01-23T05:34:00.157Z,3.20
2023-01-23T05:36:28.152Z,3.20
2023-01-23T05:38:56.835Z,3.30
2023-01-23T05:41:25.791Z,3.30
2023-01-23T05:43:55.144Z,3.30
2023-01-23T05:46:27.606Z,3.30
2023-01-23T05:48:55.581Z,3.30
2023-01-23T05:51:32.568Z,3.30
2023-01-23T05:54:01.312Z,3.30
2023-01-23T05:56:29.895Z,3.40
2023-01-23T05:59:00.065Z,3.30
2023-01-23T06:01:29.095Z,3.30
2023-01-23T06:03:57.138Z,3.30
2023-01-23T06:06:25.173Z,3.30
2023-01-23T06:08:55.130Z,3.30
2023-01-23T06:11:23.103Z,3.30
2023-01-23T06:13:51.105Z,3.30
2023-01-23T06:16:20.486Z,3.30
2023-01-23T06:18:48.476Z,3.30
2023-01-23T06:21:22.209Z,3.30
2023-01-23T06:23:50.170Z,3.30
2023-01-23T06:26:19.669Z,3.40
2023-01-23T06:28:49.795Z,3.40
2023-01-23T06:31:24.417Z,3.40
2023-01-23T06:33:54.263Z,3.40
2023-01-23T06:36:26.259Z,3.40
2023-01-23T06:38:54.662Z,3.30
2023-01-23T06:41:24.475Z,3.30
2023-01-23T06:43:53.591Z,3.40
2023-01-23T06:46:21.777Z,3.30
2023-01-23T06:48:49.772Z,3.40
2023-01-23T06:51:19.298Z,3.40
2023-01-23T06:53:47.382Z,3.40
2023-01-23T06:56:15.351Z,3.40
2023-01-23T06:58:46.813Z,3.40
2023-01-23T07:01:17.751Z,3.40
2023-01-23T07:03:46.027Z,3.40
2023-01-23T07:06:15.049Z,3.40
2023-01-23T07:08:44.976Z,3.40
2023-01-23T07:11:13.075Z,3.30
2023-01-23T07:13:41.045Z,3.30
2023-01-23T07:16:09.359Z,3.30
2023-01-23T07:18:37.349Z,3.30
2023-01-23T07:21:06.787Z,3.30
2023-01-23T07:23:35.373Z,3.30
2023-01-23T07:26:09.361Z,3.30
2023-01-23T07:28:37.842Z,3.30
2023-01-23T07:31:06.684Z,3.30
2023-01-23T07:33:34.859Z,3.30
2023-01-23T07:36:06.292Z,3.30
2023-01-23T07:38:34.321Z,3.30
2023-01-23T07:41:03.814Z,3.30
2023-01-23T07:43:31.863Z,3.30
2023-01-23T07:46:00.367Z,3.30
2023-01-23T07:48:29.358Z,3.30
2023-01-23T07:50:57.507Z,3.30
2023-01-23T07:53:25.479Z,3.30
2023-01-23T07:55:53.407Z,3.30
2023-01-23T07:58:22.795Z,3.30
2023-01-23T08:00:50.771Z,3.30
2023-01-23T08:03:18.738Z,3.30
2023-01-23T08:05:49.808Z,3.30
2023-01-23T08:08:17.785Z,3.30
2023-01-23T08:10:46.113Z,3.40
2023-01-23T08:13:14.250Z,3.40
2023-01-23T08:15:43.558Z,3.40
2023-01-23T08:18:11.513Z,3.40
2023-01-23T08:20:39.557Z,3.40
2023-01-23T08:23:07.538Z,3.30
2023-01-23T08:25:35.893Z,3.30
2023-01-23T08:28:04.423Z,3.30
2023-01-23T08:30:32.386Z,3.30
2023-01-23T08:33:04.914Z,3.40
2023-01-23T08:35:32.867Z,3.40
2023-01-23T08:38:02.415Z,3.40
2023-01-23T08:40:30.842Z,3.40
2023-01-23T08:42:58.753Z,3.40
2023-01-23T08:45:26.722Z,3.40
2023-01-23T08:47:54.748Z,3.50
2023-01-23T08:50:24.244Z,3.50
2023-01-23T08:52:52.229Z,3.50
2023-01-23T08:55:20.650Z,3.50
2023-01-23T08:57:48.621Z,3.50
2023-01-23T09:00:17.281Z,3.50
2023-01-23T09:02:45.453Z,3.50
2023-01-23T09:05:13.465Z,3.50
2023-01-23T09:07:42.797Z,3.50
2023-01-23T09:10:12.788Z,3.50
2023-01-23T09:12:42.395Z,3.60
2023-01-23T09:15:11.726Z,3.60
2023-01-23T09:17:39.749Z,3.60
2023-01-23T09:20:09.365Z,3.70
2023-01-23T09:22:37.341Z,3.60
2023-01-23T09:25:07.813Z,3.70
2023-01-23T09:27:35.795Z,3.70
2023-01-23T09:30:03.795Z,3.70
2023-01-23T09:32:32.075Z,3.70
2023-01-23T09:35:00.075Z,3.70
2023-01-23T09:37:30.789Z,3.70
2023-01-23T09:39:58.814Z,3.70
2023-01-23T09:42:34.559Z,3.70
2023-01-23T09:45:06.351Z,3.70
2023-01-23T09:47:43.357Z,3.70
2023-01-23T09:50:19.358Z,3.80
2023-01-23T09:52:54.195Z,3.80
2023-01-23T09:55:34.401Z,3.80
2023-01-23T09:58:05.005Z,3.80
2023-01-23T10:00:35.232Z,3.90
2023-01-23T10:03:05.541Z,3.90
2023-01-23T10:05:42.326Z,3.90
2023-01-23T10:08:22.832Z,4.00
2023-01-23T10:10:57.528Z,4.00
2023-01-23T10:13:40.514Z,4.00
2023-01-23T10:16:19.929Z,4.10
2023-01-23T10:18:55.526Z,4.10
2023-01-23T10:21:30.345Z,4.10
2023-01-23T10:24:05.690Z,4.20
2023-01-23T10:26:37.721Z,4.20
2023-01-23T10:29:16.423Z,4.20
2023-01-23T10:31:49.415Z,4.20
2023-01-23T10:34:23.477Z,4.20
2023-01-23T10:37:04.494Z,4.20
2023-01-23T10:39:44.440Z,4.20
2023-01-23T10:42:13.744Z,4.10
2023-01-23T10:44:43.056Z,4.20
2023-01-23T10:47:20.807Z,4.20
2023-01-23T10:49:48.807Z,4.30
2023-01-23T10:52:36.497Z,4.30
2023-01-23T10:55:06.133Z,4.40
2023-01-23T10:57:45.036Z,4.40
2023-01-23T11:00:25.149Z,4.40
2023-01-23T11:02:53.211Z,4.40
2023-01-23T11:05:51.156Z,4.40
2023-01-23T11:08:25.854Z,4.40
2023-01-23T11:10:54.310Z,4.50
2023-01-23T11:13:31.517Z,4.50
2023-01-23T11:16:00.907Z,4.50
2023-01-23T11:18:34.890Z,4.60
2023-01-23T11:21:03.288Z,4.60
2023-01-23T11:23:31.905Z,4.60
2023-01-23T11:26:01.680Z,4.60
2023-01-23T11:28:34.817Z,4.60
2023-01-23T11:31:14.618Z,4.60
2023-01-23T11:33:47.738Z,4.70
2023-01-23T11:36:34.322Z,4.70
2023-01-23T11:39:13.277Z,4.80
2023-01-23T11:41:41.479Z,4.80
2023-01-23T11:44:16.786Z,4.80
2023-01-23T11:47:10.585Z,4.70
2023-01-23T11:50:04.492Z,4.80
2023-01-23T11:52:47.107Z,4.80
2023-01-23T11:55:46.947Z,4.80
2023-01-23T11:58:28.412Z,4.80
2023-01-23T12:01:02.498Z,4.80
2023-01-23T12:04:02.809Z,4.80
2023-01-23T12:07:02.664Z,4.80
2023-01-23T12:09:36.728Z,4.80
2023-01-23T12:12:13.080Z,4.90
2023-01-23T12:14:48.829Z,4.90
2023-01-23T12:17:27.935Z,4.90
2023-01-23T12:20:22.660Z,4.90
2023-01-23T12:23:03.078Z,4.90
2023-01-23T12:25:35.799Z,4.90
2023-01-23T12:28:17.929Z,4.90
2023-01-23T12:31:05.808Z,4.90
2023-01-23T12:33:50.489Z,4.90
2023-01-23T12:36:40.294Z,5.00
2023-01-23T12:39:36.478Z,5.00
2023-01-23T12:42:10.107Z,5.10
2023-01-23T12:44:42.870Z,5.10
2023-01-23T12:47:17.471Z,5.10
2023-01-23T12:49:51.006Z,5.00
2023-01-23T12:52:25.722Z,5.10
2023-01-23T12:55:02.448Z,5.10
2023-01-23T12:57:59.785Z,5.10
2023-01-23T13:00:45.772Z,5.10
2023-01-23T13:03:37.549Z,5.20
2023-01-23T13:06:32.366Z,5.20
2023-01-23T13:09:17.801Z,5.20
2023-01-23T13:11:57.086Z,5.20
2023-01-23T13:15:00.623Z,5.20
2023-01-23T13:17:37.588Z,5.20
2023-01-23T13:20:42.607Z,5.10
2023-01-23T13:23:24.627Z,5.20
2023-01-23T13:26:14.669Z,5.20
2023-01-23T13:28:45.878Z,5.30
2023-01-23T13:31:28.573Z,5.30
2023-01-23T13:34:06.543Z,5.20
2023-01-23T13:36:37.468Z,5.30
2023-01-23T13:39:29.998Z,5.30
2023-01-23T13:42:44.082Z,5.30
2023-01-23T13:45:30.914Z,5.30
2023-01-23T14:21:48.565Z,5.20
2023-01-23T14:28:08.424Z,5.10
2023-01-23T14:31:31.975Z,5.10
2023-01-23T14:34:20.989Z,5.20
2023-01-23T14:37:34.608Z,5.20
2023-01-23T14:40:49.400Z,5.20
2023-01-23T14:43:38.194Z,5.10
2023-01-23T14:46:42.790Z,5.10
2023-01-23T14:49:46.623Z,5.10
2023-01-23T15:02:20.822Z,5.10
2023-01-23T15:09:06.359Z,5.10
2023-01-23T15:12:04.731Z,5.00
2023-01-23T15:14:56.377Z,5.10
2023-01-23T15:17:46.359Z,5.00
2023-01-23T15:21:08.499Z,5.00
2023-01-23T15:23:52.180Z,5.00
2023-01-23T15:26:43.283Z,5.00
2023-01-23T15:29:58.800Z,4.90
2023-01-23T15:32:49.976Z,4.90
2023-01-23T15:35:40.151Z,4.90
2023-01-23T15:38:24.813Z,4.80
2023-01-23T15:41:33.711Z,4.80
2023-01-23T15:47:38.567Z,4.80
2023-01-23T15:51:11.248Z,4.80
2023-01-23T15:54:17.479Z,4.70
2023-01-23T15:57:41.328Z,4.80
2023-01-23T16:00:41.453Z,4.70
2023-01-23T16:03:24.119Z,4.70
2023-01-23T16:09:30.476Z,4.70
2023-01-23T16:12:55.367Z,4.60
2023-01-23T16:16:28.046Z,4.60
2023-01-23T16:19:44.798Z,4.60
2023-01-23T16:22:31.813Z,4.60
2023-01-23T16:25:09.288Z,4.60
2023-01-23T16:31:20.264Z,4.60
2023-01-23T16:38:12.420Z,4.50
2023-01-23T16:41:20.668Z,4.50
2023-01-23T16:44:30.303Z,4.50
2023-01-23T16:47:36.531Z,4.50
2023-01-23T16:51:03.551Z,4.50
2023-01-23T16:54:51.756Z,4.50
2023-01-23T16:57:21.993Z,4.40
2023-01-23T17:00:34.909Z,4.50
2023-01-23T17:03:56.610Z,4.40
2023-01-23T17:10:55.325Z,4.40
2023-01-23T17:14:28.212Z,4.40
2023-01-23T17:25:40.858Z,4.40
2023-01-23T17:27:44.893Z,4.30
2023-01-23T17:30:18.203Z,4.30
2023-01-23T17:32:48.886Z,4.30
2023-01-23T17:35:22.550Z,4.30
2023-01-23T17:37:50.865Z,4.30
2023-01-23T17:40:19.259Z,4.30
2023-01-23T17:42:48.749Z,4.30
2023-01-23T17:45:18.646Z,4.30
2023-01-23T17:47:50.238Z,4.30
2023-01-23T17:50:20.769Z,4.30
2023-01-23T17:52:49.494Z,4.30
2023-01-23T17:55:19.311Z,4.30
2023-01-23T17:57:48.820Z,4.30
2023-01-23T18:00:19.527Z,4.30
2023-01-23T18:02:51.102Z,4.30
2023-01-23T18:05:19.438Z,4.30
2023-01-23T18:07:53.698Z,4.30
2023-01-23T18:10:24.692Z,4.30
2023-01-23T18:13:02.810Z,4.20
2023-01-23T18:15:37.631Z,4.20
2023-01-23T18:18:22.185Z,4.20
2023-01-23T18:20:54.612Z,4.20
2023-01-23T18:23:24.045Z,4.20
2023-01-23T18:26:00.194Z,4.20
2023-01-23T18:28:38.566Z,4.20
2023-01-23T18:31:13.754Z,4.20
2023-01-23T18:34:05.172Z,4.20
2023-01-23T18:36:42.946Z,4.20
2023-01-23T18:39:34.947Z,4.20
2023-01-23T18:42:15.172Z,4.20
2023-01-23T18:44:51.729Z,4.20
2023-01-23T18:47:20.142Z,4.20
2023-01-23T18:49:48.478Z,4.20
2023-01-23T18:52:25.347Z,4.20
2023-01-23T18:55:06.464Z,4.20
2023-01-23T18:57:53.427Z,4.20
2023-01-23T19:00:39.623Z,4.20
2023-01-23T19:03:15.271Z,4.20
2023-01-23T19:05:43.640Z,4.20
2023-01-23T19:08:28.184Z,4.20
2023-01-23T19:11:08.612Z,4.20
2023-01-23T19:13:45.251Z,4.20
2023-01-23T19:16:29.282Z,4.20
2023-01-23T19:19:15.459Z,4.20
2023-01-23T19:21:46.878Z,4.20
2023-01-23T19:24:19.132Z,4.20
2023-01-23T19:26:48.026Z,4.20
2023-01-23T19:29:22.458Z,4.20
2023-01-23T19:32:04.744Z,4.20
2023-01-23T19:34:34.147Z,4.20
2023-01-23T19:37:02.408Z,4.10
2023-01-23T19:39:30.770Z,4.10
2023-01-23T19:41:59.843Z,4.10
2023-01-23T19:44:29.956Z,4.10
2023-01-23T19:46:59.964Z,4.10
2023-01-23T19:49:28.164Z,4.10
2023-01-23T19:51:56.318Z,4.10
2023-01-23T19:54:24.580Z,4.10
2023-01-23T19:56:52.602Z,4.10
2023-01-23T19:59:21.062Z,4.10
2023-01-23T20:01:51.914Z,4.10
2023-01-23T20:04:23.045Z,4.10
2023-01-23T20:06:52.280Z,4.10
2023-01-23T20:09:20.656Z,4.10
2023-01-23T20:11:49.119Z,4.10
2023-01-23T20:14:17.285Z,4.10
2023-01-23T20:16:45.312Z,4.10
2023-01-23T20:19:14.875Z,4.10
2023-01-23T20:21:47.572Z,4.10
2023-01-23T20:24:16.727Z,4.10
2023-01-23T20:26:46.159Z,4.10
2023-01-23T20:29:14.125Z,4.10
2023-01-23T20:31:42.135Z,4.10
2023-01-23T20:34:10.111Z,4.10
2023-01-23T20:36:38.132Z,4.10
2023-01-23T20:39:07.660Z,4.10
2023-01-23T20:41:35.750Z,4.10
2023-01-23T20:44:03.729Z,4.10
2023-01-23T20:46:32.019Z,4.10
2023-01-23T20:49:01.595Z,4.10
2023-01-23T20:51:30.282Z,4.10
2023-01-23T20:53:58.715Z,4.10
2023-01-23T20:56:28.386Z,4.10
2023-01-23T20:59:14.920Z,4.10
2023-01-23T21:02:00.692Z,4.10
2023-01-23T21:04:32.177Z,4.10
2023-01-23T21:07:00.691Z,4.10
2023-01-23T21:09:28.798Z,4.10
2023-01-23T21:11:58.446Z,4.10
2023-01-23T21:14:26.605Z,4.10
2023-01-23T21:16:54.710Z,4.10
2023-01-23T21:19:22.937Z,4.10
2023-01-23T21:21:51.199Z,4.10
2023-01-23T21:24:19.338Z,4.10
2023-01-23T21:26:47.679Z,4.10
2023-01-23T21:29:17.302Z,4.10
2023-01-23T21:31:45.353Z,4.10
2023-01-23T21:34:15.197Z,4.10
2023-01-23T21:36:44.257Z,4.10
2023-01-23T21:39:15.115Z,4.10
2023-01-23T21:41:43.656Z,4.10
2023-01-23T21:44:11.955Z,4.10
2023-01-23T21:46:41.516Z,4.10
2023-01-23T21:49:09.727Z,4.10
2023-01-23T21:51:37.871Z,4.10
2023-01-23T21:54:06.234Z,4.10
2023-01-23T21:56:34.331Z,4.10
2023-01-23T21:59:02.294Z,4.00
2023-01-23T22:01:33.128Z,4.00
2023-01-23T22:04:04.494Z,4.00
2023-01-23T22:06:32.817Z,4.10
2023-01-23T22:09:00.949Z,4.00
2023-01-23T22:11:29.081Z,4.10
2023-01-23T22:13:57.318Z,4.10
2023-01-23T22:16:35.995Z,4.00
2023-01-23T22:19:15.698Z,4.00
2023-01-23T22:21:46.099Z,4.00
2023-01-23T22:24:14.120Z,4.00
2023-01-23T22:26:42.181Z,4.00
2023-01-23T22:29:10.320Z,4.00
2023-01-23T22:31:38.358Z,4.10
2023-01-23T22:34:06.929Z,4.10
2023-01-23T22:36:36.242Z,4.10
2023-01-23T22:39:04.480Z,4.10
2023-01-23T22:41:32.554Z,4.10
2023-01-23T22:44:00.567Z,4.10
2023-01-23T22:46:29.578Z,4.10
2023-01-23T22:48:57.633Z,4.10
2023-01-23T22:51:27.031Z,4.10
2023-01-23T22:53:57.670Z,4.00
2023-01-23T22:56:27.152Z,4.00
2023-01-23T22:58:56.551Z,4.00
2023-01-23T23:01:27.310Z,4.00
2023-01-23T23:03:57.674Z,4.00
2023-01-23T23:06:26.315Z,4.00
2023-01-23T23:08:56.558Z,4.00
2023-01-23T23:11:26.601Z,4.00
2023-01-23T23:13:54.906Z,4.00
2023-01-23T23:16:24.314Z,4.00
2023-01-23T23:18:53.772Z,4.00
2023-01-23T23:21:24.270Z,4.00
2023-01-23T23:23:52.416Z,4.00
2023-01-23T23:26:21.811Z,4.00
2023-01-23T23:28:49.796Z,4.00
2023-01-23T23:31:17.861Z,4.00
2023-01-23T23:33:46.209Z,4.00
2023-01-23T23:36:14.241Z,4.00
2023-01-23T23:38:42.347Z,4.00
2023-01-23T23:41:14.051Z,4.00
2023-01-23T23:43:44.012Z,4.00
2023-01-23T23:46:13.765Z,4.00
2023-01-23T23:48:43.701Z,4.00
2023-01-23T23:51:14.317Z,4.00
2023-01-23T23:53:42.705Z,4.00
2023-01-23T23:56:17.568Z,4.00
2023-01-23T23:58:46.923Z,4.00
